Anzahl Datensätze: 143
min. Temperatur: 3.1 °C
max. Temperatur: 9.0 °C
max. Windgeschwindigkeit: 9.0 km/h
Niederschlagsumme: 0.4 mm
| Datum |
Zeit |
Temp °C |
Feuchte % |
Taupunkt °C |
Luftdruck hPa |
Wind km/h |
Windrichtung |
Strahlung w/m² |
Niederschlag mm |
|---|---|---|---|---|---|---|---|---|---|
| 23.02.2025 | 00:07 | 4.6 | 80 | 1.5 | 1026.5 | 0.7 | N | 0 | 0.0 |
| 23.02.2025 | 00:17 | 4.3 | 82 | 1.5 | 1026.6 | 2.2 | S | 0 | 0.0 |
| 23.02.2025 | 00:27 | 4.2 | 83 | 1.5 | 1026.9 | 0.7 | N | 0 | 0.0 |
| 23.02.2025 | 00:37 | 4.2 | 81 | 1.2 | 1027.1 | 2.5 | NW | 0 | 0.0 |
| 23.02.2025 | 00:47 | 4.5 | 79 | 1.2 | 1027.1 | 2.2 | NNO | 0 | 0.0 |
| 23.02.2025 | 00:57 | 4.4 | 79 | 1.0 | 1027.1 | 1.4 | N | 0 | 0.0 |
| 23.02.2025 | 01:07 | 4.2 | 83 | 1.5 | 1027.1 | 2.5 | S | 0 | 0.0 |
| 23.02.2025 | 01:17 | 4.3 | 80 | 1.1 | 1027.2 | 1.8 | NNO | 0 | 0.0 |
| 23.02.2025 | 01:27 | 4.5 | 80 | 1.4 | 1027.1 | 1.8 | S | 0 | 0.0 |
| 23.02.2025 | 01:37 | 4.1 | 84 | 1.6 | 1027.5 | 1.1 | N | 0 | 0.0 |
| 23.02.2025 | 01:47 | 4.1 | 81 | 1.2 | 1027.4 | 2.5 | NNO | 0 | 0.0 |
| 23.02.2025 | 01:57 | 4.6 | 78 | 1.1 | 1027.4 | 1.8 | NNO | 0 | 0.0 |
| 23.02.2025 | 02:07 | 4.3 | 79 | 1.0 | 1027.6 | 0.7 | N | 0 | 0.0 |
| 23.02.2025 | 02:17 | 4.0 | 85 | 1.7 | 1027.7 | 3.6 | S | 0 | 0.0 |
| 23.02.2025 | 02:27 | 3.4 | 85 | 1.2 | 1027.9 | 2.9 | N | 0 | 0.0 |
| 23.02.2025 | 02:37 | 4.0 | 83 | 1.5 | 1027.7 | 2.5 | N | 0 | 0.0 |
| 23.02.2025 | 02:47 | 4.3 | 81 | 1.3 | 1027.9 | 1.8 | NNO | 0 | 0.0 |
| 23.02.2025 | 02:57 | 4.8 | 79 | 1.5 | 1027.8 | 0.7 | N | 0 | 0.0 |
| 23.02.2025 | 03:07 | 4.6 | 80 | 1.4 | 1027.7 | 1.1 | N | 0 | 0.0 |
| 23.02.2025 | 03:17 | 4.9 | 82 | 2.1 | 1027.7 | 1.8 | S | 0 | 0.0 |
| 23.02.2025 | 03:27 | 4.2 | 86 | 2.2 | 1027.9 | 1.1 | N | 0 | 0.0 |
| 23.02.2025 | 03:37 | 4.3 | 87 | 2.3 | 1027.8 | 0.7 | N | 0 | 0.0 |
| 23.02.2025 | 03:47 | 4.2 | 84 | 1.8 | 1027.9 | 2.2 | N | 0 | 0.0 |
| 23.02.2025 | 03:57 | 4.4 | 84 | 1.8 | 1027.8 | 0.7 | N | 0 | 0.0 |
| 23.02.2025 | 04:07 | 4.3 | 84 | 1.8 | 1028.0 | 1.4 | N | 0 | 0.0 |
| 23.02.2025 | 04:17 | 4.7 | 82 | 1.8 | 1027.7 | 2.2 | SSW | 0 | 0.0 |
| 23.02.2025 | 04:28 | 3.9 | 84 | 1.4 | 1028.0 | 2.9 | N | 0 | 0.0 |
| 23.02.2025 | 04:38 | 4.0 | 84 | 1.6 | 1028.2 | 0.7 | N | 0 | 0.0 |
| 23.02.2025 | 04:48 | 4.1 | 84 | 1.6 | 1028.2 | 1.4 | S | 0 | 0.0 |
| 23.02.2025 | 04:58 | 4.1 | 83 | 1.5 | 1028.2 | 1.8 | S | 0 | 0.0 |
| 23.02.2025 | 05:08 | 4.2 | 83 | 1.6 | 1028.2 | 1.1 | N | 0 | 0.0 |
| 23.02.2025 | 05:18 | 4.3 | 83 | 1.7 | 1028.1 | 1.1 | N | 0 | 0.0 |
| 23.02.2025 | 05:28 | 4.6 | 82 | 1.8 | 1028.0 | 1.1 | N | 0 | 0.0 |
| 23.02.2025 | 05:38 | 4.2 | 82 | 1.4 | 1028.2 | 0.7 | N | 0 | 0.0 |
| 23.02.2025 | 05:48 | 4.5 | 83 | 1.8 | 1028.1 | 1.1 | NNW | 0 | 0.0 |
| 23.02.2025 | 05:58 | 4.2 | 85 | 2.0 | 1028.2 | 0.7 | N | 0 | 0.0 |
| 23.02.2025 | 06:08 | 3.9 | 83 | 1.3 | 1028.5 | 1.1 | N | 0 | 0.0 |
| 23.02.2025 | 06:18 | 4.0 | 80 | 0.8 | 1028.5 | 2.2 | NNO | 0 | 0.0 |
| 23.02.2025 | 06:28 | 4.3 | 77 | 0.7 | 1028.5 | 1.8 | NO | 0 | 0.0 |
| 23.02.2025 | 06:38 | 4.2 | 81 | 1.3 | 1028.5 | 0.7 | SSW | 0 | 0.0 |
| 23.02.2025 | 06:48 | 4.0 | 84 | 1.6 | 1028.6 | 0.7 | N | 0 | 0.0 |
| 23.02.2025 | 06:58 | 3.9 | 84 | 1.4 | 1028.7 | 0.7 | N | 0 | 0.0 |
| 23.02.2025 | 07:08 | 4.0 | 83 | 1.3 | 1028.8 | 1.8 | NNO | 0 | 0.0 |
| 23.02.2025 | 07:18 | 4.1 | 82 | 1.4 | 1029.0 | 1.8 | S | 0 | 0.0 |
| 23.02.2025 | 07:28 | 3.6 | 84 | 1.3 | 1029.2 | 1.8 | SSW | 2 | 0.0 |
| 23.02.2025 | 07:38 | 3.5 | 85 | 1.2 | 1029.4 | 3.2 | S | 4 | 0.0 |
| 23.02.2025 | 07:48 | 3.4 | 85 | 1.1 | 1029.6 | 1.8 | NO | 8 | 0.0 |
| 23.02.2025 | 07:58 | 3.9 | 83 | 1.3 | 1029.5 | 2.2 | SSW | 13 | 0.0 |
| 23.02.2025 | 08:08 | 3.7 | 85 | 1.3 | 1029.5 | 2.2 | N | 18 | 0.0 |
| 23.02.2025 | 08:18 | 3.8 | 84 | 1.4 | 1029.6 | 1.8 | NNW | 26 | 0.0 |
| 23.02.2025 | 08:28 | 4.0 | 84 | 1.6 | 1029.6 | 2.5 | NNW | 43 | 0.0 |
| 23.02.2025 | 08:38 | 3.8 | 85 | 1.5 | 1029.8 | 2.9 | S | 57 | 0.0 |
| 23.02.2025 | 08:48 | 4.2 | 82 | 1.5 | 1029.7 | 1.8 | N | 69 | 0.0 |
| 23.02.2025 | 08:58 | 4.7 | 82 | 1.9 | 1029.7 | 1.8 | S | 71 | 0.0 |
| 23.02.2025 | 09:08 | 4.9 | 79 | 1.6 | 1029.7 | 1.4 | NNO | 80 | 0.0 |
| 23.02.2025 | 09:18 | 5.1 | 78 | 1.6 | 1029.5 | 0.4 | N | 101 | 0.0 |
| 23.02.2025 | 09:28 | 5.0 | 77 | 1.4 | 1029.7 | 2.2 | SSW | 111 | 0.0 |
| 23.02.2025 | 09:38 | 5.0 | 82 | 2.2 | 1029.8 | 2.2 | S | 122 | 0.0 |
| 23.02.2025 | 09:49 | 5.5 | 83 | 2.7 | 1030.0 | 4.3 | S | 109 | 0.0 |
| 23.02.2025 | 09:59 | 4.7 | 85 | 2.3 | 1030.4 | 1.8 | SW | 137 | 0.0 |
| 23.02.2025 | 10:09 | 5.5 | 81 | 2.6 | 1030.0 | 3.2 | WSW | 156 | 0.0 |
| 23.02.2025 | 10:19 | 5.9 | 79 | 2.5 | 1029.9 | 1.4 | SSW | 187 | 0.0 |
| 23.02.2025 | 10:29 | 5.6 | 78 | 2.0 | 1029.9 | 2.9 | S | 225 | 0.0 |
| 23.02.2025 | 10:39 | 6.6 | 74 | 2.4 | 1029.6 | 2.5 | SSW | 259 | 0.0 |
| 23.02.2025 | 10:49 | 5.7 | 80 | 2.4 | 1029.8 | 4.3 | S | 290 | 0.0 |
| 23.02.2025 | 10:59 | 5.3 | 80 | 2.1 | 1029.9 | 4.3 | S | 184 | 0.0 |
| 23.02.2025 | 11:09 | 5.9 | 78 | 2.3 | 1029.7 | 3.2 | S | 256 | 0.0 |
| 23.02.2025 | 11:19 | 6.1 | 75 | 2.0 | 1029.7 | 3.2 | SSW | 343 | 0.0 |
| 23.02.2025 | 11:29 | 6.5 | 74 | 2.2 | 1029.6 | 3.2 | SSW | 307 | 0.0 |
| 23.02.2025 | 11:39 | 7.1 | 71 | 2.1 | 1029.4 | 5.4 | SSW | 328 | 0.0 |
| 23.02.2025 | 11:49 | 9.0 | 66 | 3.0 | 1029.0 | 4.3 | WSW | 382 | 0.0 |
| 23.02.2025 | 11:59 | 8.5 | 71 | 3.4 | 1028.9 | 1.4 | SW | 207 | 0.0 |
| 23.02.2025 | 12:09 | 8.4 | 73 | 3.8 | 1028.8 | 0.0 | N | 198 | 0.0 |
| 23.02.2025 | 12:19 | 7.7 | 72 | 3.0 | 1029.0 | 1.8 | SSW | 181 | 0.0 |
| 23.02.2025 | 12:29 | 7.9 | 75 | 3.6 | 1029.0 | 3.2 | WSW | 168 | 0.0 |
| 23.02.2025 | 12:39 | 7.5 | 77 | 3.7 | 1029.1 | 2.2 | ONO | 196 | 0.0 |
| 23.02.2025 | 12:49 | 7.1 | 77 | 3.3 | 1029.2 | 5.0 | NNW | 146 | 0.0 |
| 23.02.2025 | 12:59 | 6.9 | 81 | 3.8 | 1029.2 | 1.1 | N | 133 | 0.0 |
| 23.02.2025 | 13:09 | 7.4 | 77 | 3.6 | 1029.0 | 1.4 | N | 160 | 0.0 |
| 23.02.2025 | 13:19 | 7.7 | 75 | 3.6 | 1029.0 | 3.6 | NO | 154 | 0.0 |
| 23.02.2025 | 13:29 | 7.9 | 79 | 4.4 | 1029.0 | 3.2 | WSW | 127 | 0.1 |
| 23.02.2025 | 13:39 | 7.8 | 81 | 4.7 | 1029.1 | 3.6 | WSW | 134 | 0.1 |
| 23.02.2025 | 13:49 | 7.7 | 83 | 5.1 | 1029.1 | 0.7 | ONO | 132 | 0.1 |
| 23.02.2025 | 13:59 | 7.6 | 85 | 5.3 | 1029.2 | 2.2 | WSW | 102 | 0.2 |
| 23.02.2025 | 14:09 | 7.2 | 83 | 4.6 | 1029.1 | 2.5 | WSW | 107 | 0.2 |
| 23.02.2025 | 14:19 | 7.4 | 85 | 5.0 | 1029.1 | 2.5 | N | 103 | 0.2 |
| 23.02.2025 | 14:29 | 7.6 | 86 | 5.3 | 1029.0 | 0.4 | N | 92 | 0.2 |
| 23.02.2025 | 14:39 | 7.6 | 85 | 5.4 | 1028.9 | 1.8 | WSW | 79 | 0.2 |
| 23.02.2025 | 14:49 | 7.4 | 86 | 5.2 | 1029.0 | 0.4 | NW | 86 | 0.3 |
| 23.02.2025 | 14:59 | 7.6 | 85 | 5.2 | 1028.9 | 0.7 | N | 71 | 0.3 |
| 23.02.2025 | 15:09 | 7.0 | 85 | 4.5 | 1028.9 | 4.3 | S | 73 | 0.3 |
| 23.02.2025 | 15:20 | 6.7 | 88 | 4.9 | 1029.0 | 3.2 | SW | 67 | 0.3 |
| 23.02.2025 | 15:30 | 6.9 | 88 | 5.1 | 1028.8 | 1.4 | NW | 79 | 0.3 |
| 23.02.2025 | 15:40 | 7.4 | 87 | 5.4 | 1028.7 | 2.2 | SSW | 95 | 0.3 |
| 23.02.2025 | 15:50 | 7.5 | 86 | 5.2 | 1028.6 | 0.7 | S | 85 | 0.3 |
| 23.02.2025 | 16:00 | 7.8 | 86 | 5.6 | 1028.5 | 3.2 | S | 63 | 0.3 |
| 23.02.2025 | 16:10 | 7.3 | 86 | 5.1 | 1028.7 | 5.0 | S | 40 | 0.3 |
| 23.02.2025 | 16:20 | 7.0 | 89 | 5.3 | 1028.7 | 1.1 | NW | 32 | 0.3 |
| 23.02.2025 | 16:30 | 7.3 | 88 | 5.5 | 1028.8 | 1.4 | NNW | 21 | 0.3 |
| 23.02.2025 | 16:40 | 7.3 | 87 | 5.2 | 1028.7 | 0.7 | SSW | 19 | 0.3 |
| 23.02.2025 | 16:50 | 7.3 | 86 | 5.1 | 1028.6 | 1.8 | N | 19 | 0.3 |
| 23.02.2025 | 17:00 | 7.4 | 86 | 5.2 | 1028.6 | 1.4 | S | 22 | 0.3 |
| 23.02.2025 | 17:10 | 6.6 | 89 | 4.9 | 1028.7 | 1.8 | SSW | 21 | 0.3 |
| 23.02.2025 | 17:20 | 7.0 | 88 | 5.2 | 1028.6 | 1.4 | NNO | 17 | 0.3 |
| 23.02.2025 | 17:30 | 7.4 | 86 | 5.2 | 1028.5 | 0.4 | N | 8 | 0.3 |
| 23.02.2025 | 17:40 | 7.1 | 87 | 5.0 | 1028.6 | 1.1 | S | 6 | 0.3 |
| 23.02.2025 | 17:50 | 6.3 | 89 | 4.7 | 1028.9 | 1.4 | SSW | 3 | 0.3 |
| 23.02.2025 | 18:00 | 6.6 | 89 | 5.0 | 1029.0 | 0.7 | N | 0 | 0.3 |
| 23.02.2025 | 18:10 | 6.8 | 89 | 5.1 | 1029.0 | 1.1 | SSW | 0 | 0.3 |
| 23.02.2025 | 18:20 | 6.6 | 89 | 4.8 | 1029.1 | 1.8 | S | 0 | 0.3 |
| 23.02.2025 | 18:30 | 6.6 | 89 | 5.0 | 1029.0 | 1.1 | N | 0 | 0.3 |
| 23.02.2025 | 18:40 | 6.7 | 89 | 5.0 | 1029.1 | 0.7 | N | 0 | 0.3 |
| 23.02.2025 | 18:50 | 6.6 | 90 | 5.1 | 1029.2 | 2.5 | NNO | 0 | 0.3 |
| 23.02.2025 | 19:00 | 6.6 | 90 | 5.0 | 1029.2 | 2.5 | N | 0 | 0.4 |
| 23.02.2025 | 19:10 | 6.6 | 90 | 5.0 | 1029.2 | 2.9 | NO | 0 | 0.4 |
| 23.02.2025 | 19:20 | 6.4 | 91 | 5.0 | 1029.3 | 2.5 | N | 0 | 0.4 |
| 23.02.2025 | 19:30 | 6.0 | 92 | 4.9 | 1029.4 | 1.8 | S | 0 | 0.4 |
| 23.02.2025 | 19:40 | 6.0 | 92 | 4.8 | 1029.5 | 2.9 | N | 0 | 0.4 |
| 23.02.2025 | 19:50 | 6.0 | 92 | 4.7 | 1029.6 | 2.9 | NNO | 0 | 0.4 |
| 23.02.2025 | 20:00 | 6.0 | 91 | 4.5 | 1029.6 | 0.7 | N | 0 | 0.4 |
| 23.02.2025 | 20:10 | 5.8 | 90 | 4.3 | 1029.6 | 3.6 | N | 0 | 0.4 |
| 23.02.2025 | 20:20 | 5.9 | 89 | 4.2 | 1029.7 | 2.9 | S | 0 | 0.4 |
| 23.02.2025 | 20:30 | 5.4 | 93 | 4.3 | 1029.8 | 1.4 | NO | 0 | 0.4 |
| 23.02.2025 | 20:40 | 5.2 | 92 | 4.1 | 1030.0 | 2.9 | NNO | 0 | 0.4 |
| 23.02.2025 | 20:50 | 5.0 | 91 | 3.6 | 1030.0 | 2.5 | NNO | 0 | 0.4 |
| 23.02.2025 | 21:00 | 5.2 | 89 | 3.5 | 1030.3 | 0.4 | N | 0 | 0.4 |
| 23.02.2025 | 21:10 | 5.2 | 90 | 3.6 | 1030.4 | 2.2 | NNO | 0 | 0.4 |
| 23.02.2025 | 21:21 | 4.5 | 90 | 3.0 | 1030.5 | 3.6 | N | 0 | 0.4 |
| 23.02.2025 | 21:31 | 4.9 | 89 | 3.2 | 1030.3 | 2.9 | NNO | 0 | 0.4 |
| 23.02.2025 | 21:41 | 4.8 | 87 | 2.8 | 1030.3 | 2.2 | ONO | 0 | 0.4 |
| 23.02.2025 | 21:51 | 4.7 | 89 | 3.1 | 1030.3 | 1.8 | N | 0 | 0.4 |
| 23.02.2025 | 22:01 | 4.4 | 89 | 2.7 | 1030.4 | 3.6 | NNO | 0 | 0.4 |
| 23.02.2025 | 22:11 | 4.7 | 88 | 2.8 | 1030.3 | 2.9 | S | 0 | 0.4 |
| 23.02.2025 | 22:21 | 4.2 | 91 | 2.8 | 1030.3 | 1.4 | SSW | 0 | 0.4 |
| 23.02.2025 | 22:31 | 3.6 | 91 | 2.2 | 1030.4 | 4.0 | NNO | 0 | 0.4 |
| 23.02.2025 | 22:41 | 3.8 | 90 | 2.2 | 1030.4 | 1.8 | NNO | 0 | 0.4 |
| 23.02.2025 | 22:51 | 3.8 | 89 | 2.1 | 1030.5 | 0.7 | N | 0 | 0.4 |
| 23.02.2025 | 23:01 | 4.0 | 88 | 2.2 | 1030.3 | 0.7 | N | 0 | 0.4 |
| 23.02.2025 | 23:11 | 3.6 | 89 | 2.0 | 1030.4 | 2.5 | NNW | 0 | 0.4 |
| 23.02.2025 | 23:21 | 3.3 | 89 | 1.8 | 1030.6 | 1.4 | NNO | 0 | 0.4 |
| 23.02.2025 | 23:31 | 3.4 | 89 | 1.7 | 1030.6 | 1.4 | N | 0 | 0.4 |
| 23.02.2025 | 23:41 | 3.5 | 89 | 1.8 | 1030.7 | 0.7 | N | 0 | 0.4 |
| 23.02.2025 | 23:51 | 3.1 | 90 | 1.6 | 1030.9 | 2.5 | ONO | 0 | 0.4 |